Time;durP1;ratioP1;P1;durP2;ratioP2;P2;SDS_P1;SDS_P2;PMS_P1;PMS_P2;Temp;Humidity;BMP_temperature;BMP_pressure;BME280_temperature;BME280_humidity;BME280_pressure;Samples;Min_cycle;Max_cycle;Signal;HPM_P1;HPM_P2
2022/05/27 00:00:20;;;;;;;4.20;2.60;;;15.30;99.90;;;;;;5056395;28;20441;-89
2022/05/27 00:02:50;;;;;;;4.70;2.90;;;15.40;99.90;;;;;;5057693;28;20436;-89
2022/05/27 00:05:19;;;;;;;5.53;2.93;;;15.40;99.90;;;;;;5057476;28;20487;-90
2022/05/27 00:07:46;;;;;;;4.57;2.80;;;15.40;99.90;;;;;;5057336;28;20456;-90
2022/05/27 00:10:15;;;;;;;5.50;2.70;;;15.30;99.90;;;;;;5058201;28;20948;-90
2022/05/27 00:12:42;;;;;;;4.60;2.80;;;15.40;99.90;;;;;;5059015;28;20536;-90
2022/05/27 00:15:10;;;;;;;4.23;2.47;;;15.30;99.90;;;;;;5101391;23;20488;-85
2022/05/27 00:17:36;;;;;;;4.03;2.43;;;15.40;99.90;;;;;;5070223;28;21067;-86
2022/05/27 00:20:06;;;;;;;5.27;2.67;;;15.30;99.90;;;;;;5060878;28;20453;-86
2022/05/27 00:22:33;;;;;;;6.57;2.70;;;15.30;99.90;;;;;;5066754;28;20445;-85
2022/05/27 00:24:59;;;;;;;4.60;2.60;;;15.30;99.90;;;;;;5058537;28;20437;-85
2022/05/27 00:27:26;;;;;;;4.93;2.70;;;15.30;99.90;;;;;;5058320;28;20518;-85
2022/05/27 00:29:53;;;;;;;4.63;2.60;;;15.30;99.90;;;;;;5058479;28;20514;-85
2022/05/27 00:32:20;;;;;;;5.40;2.63;;;15.20;99.90;;;;;;5059405;28;20896;-85
2022/05/27 00:34:48;;;;;;;7.63;3.23;;;15.20;99.90;;;;;;5059586;28;20469;-85
2022/05/27 00:37:16;;;;;;;5.10;2.53;;;15.10;99.90;;;;;;5058862;28;20896;-85
2022/05/27 00:39:43;;;;;;;6.33;3.00;;;15.10;99.90;;;;;;5059705;28;20454;-86
2022/05/27 00:42:10;;;;;;;4.80;2.87;;;15.10;99.90;;;;;;5065280;28;20430;-85
2022/05/27 00:44:37;;;;;;;5.17;2.80;;;15.10;99.90;;;;;;5077110;28;20478;-85
2022/05/27 00:47:08;;;;;;;5.17;3.07;;;15.10;99.90;;;;;;5077146;28;20475;-86
2022/05/27 00:49:40;;;;;;;4.53;2.80;;;15.10;99.90;;;;;;5077964;28;20534;-85
2022/05/27 00:52:09;;;;;;;5.70;2.70;;;15.10;99.90;;;;;;5068446;28;20522;-88
2022/05/27 00:54:38;;;;;;;3.50;2.17;;;15.00;99.90;;;;;;5062711;28;20544;-86
2022/05/27 00:57:10;;;;;;;4.40;2.07;;;15.10;99.90;;;;;;5072989;28;20446;-86
2022/05/27 00:59:43;;;;;;;5.30;2.73;;;15.10;99.90;;;;;;5078367;28;20408;-84
2022/05/27 01:02:10;;;;;;;4.30;2.73;;;15.10;99.90;;;;;;5078610;28;20502;-86
2022/05/27 01:04:38;;;;;;;4.87;2.60;;;15.10;99.90;;;;;;5067233;28;20472;-85
2022/05/27 01:07:05;;;;;;;4.87;2.40;;;15.00;99.90;;;;;;5060690;28;20452;-86
2022/05/27 01:09:35;;;;;;;5.03;2.47;;;15.00;99.90;;;;;;5060476;28;20473;-85
2022/05/27 01:12:17;;;;;;;4.47;2.30;;;15.00;99.90;;;;;;5062782;28;20424;-87
2022/05/27 01:14:58;;;;;;;5.30;2.37;;;14.90;99.90;;;;;;5064104;28;20503;-88
2022/05/27 01:17:30;;;;;;;3.60;2.20;;;14.90;99.90;;;;;;5063613;28;20503;-88
2022/05/27 01:20:19;;;;;;;9.30;3.03;;;14.90;99.90;;;;;;5062253;28;20451;-88
2022/05/27 01:23:07;;;;;;;3.97;2.00;;;14.80;99.90;;;;;;5061019;28;20482;-87
2022/05/27 01:26:11;;;;;;;4.13;2.57;;;14.80;99.90;;;;;;5066515;28;20532;-88
2022/05/27 01:28:43;;;;;;;3.93;2.20;;;14.90;99.90;;;;;;5067235;28;21032;-86
2022/05/27 01:31:20;;;;;;;4.67;2.40;;;14.80;99.90;;;;;;5066462;28;20441;-87
2022/05/27 01:34:00;;;;;;;5.10;2.53;;;14.80;99.90;;;;;;5067735;28;20407;-87
2022/05/27 01:36:33;;;;;;;4.70;2.10;;;14.70;99.90;;;;;;5062899;28;20587;-87
2022/05/27 01:39:07;;;;;;;4.70;2.40;;;14.70;99.90;;;;;;5072390;28;20413;-86
2022/05/27 01:41:43;;;;;;;3.90;2.37;;;14.60;99.90;;;;;;5073768;28;20448;-87
2022/05/27 01:44:17;;;;;;;5.13;2.63;;;14.50;99.90;;;;;;5065316;28;20424;-88
2022/05/27 01:46:46;;;;;;;4.50;2.33;;;14.50;99.90;;;;;;5071010;28;20471;-84
2022/05/27 01:49:23;;;;;;;4.67;2.20;;;14.50;99.90;;;;;;5078280;28;20448;-86
2022/05/27 01:51:55;;;;;;;3.93;2.00;;;14.50;99.90;;;;;;5073378;28;20405;-86
2022/05/27 01:54:30;;;;;;;4.47;2.70;;;14.40;99.90;;;;;;5065745;28;20469;-88
2022/05/27 01:57:01;;;;;;;4.77;2.10;;;14.40;99.90;;;;;;5060951;28;20446;-87
2022/05/27 01:59:32;;;;;;;4.80;2.30;;;14.40;99.90;;;;;;5060908;28;20522;-87
2022/05/27 02:02:06;;;;;;;4.27;2.50;;;14.30;99.90;;;;;;5059567;28;20413;-87
2022/05/27 02:04:38;;;;;;;5.30;2.70;;;14.30;99.90;;;;;;5068048;28;20454;-87
2022/05/27 02:07:08;;;;;;;5.03;2.10;;;14.30;99.90;;;;;;5078173;28;20508;-87
2022/05/27 02:09:40;;;;;;;7.50;2.53;;;14.20;99.90;;;;;;5076036;28;20423;-87
2022/05/27 02:12:13;;;;;;;3.53;2.03;;;14.20;99.90;;;;;;5077075;28;20448;-86
2022/05/27 02:14:45;;;;;;;4.87;2.40;;;14.30;99.90;;;;;;5070018;28;20488;-88
2022/05/27 02:17:17;;;;;;;5.30;2.10;;;14.40;99.90;;;;;;5063668;28;20508;-87
2022/05/27 02:19:49;;;;;;;3.40;2.10;;;14.30;99.90;;;;;;5062946;28;20432;-87
2022/05/27 02:22:20;;;;;;;5.10;1.90;;;14.20;99.90;;;;;;5062180;28;20812;-87
2022/05/27 02:24:51;;;;;;;4.93;2.80;;;14.30;99.90;;;;;;5069280;28;20543;-86
2022/05/27 02:27:27;;;;;;;4.07;2.13;;;14.30;99.90;;;;;;5076289;28;20409;-87
2022/05/27 02:30:01;;;;;;;3.97;2.13;;;14.20;99.90;;;;;;5060226;28;20417;-85
2022/05/27 02:32:32;;;;;;;4.57;2.30;;;14.20;99.90;;;;;;5058564;28;20406;-86
2022/05/27 02:35:08;;;;;;;3.40;2.20;;;14.20;99.90;;;;;;5058405;28;20571;-84
2022/05/27 02:37:38;;;;;;;4.43;2.50;;;14.20;99.90;;;;;;5070068;28;20422;-87
2022/05/27 02:40:08;;;;;;;3.57;2.03;;;14.20;99.90;;;;;;5072057;28;20414;-86
2022/05/27 02:42:42;;;;;;;5.13;2.40;;;14.20;99.90;;;;;;5061749;28;20441;-87
2022/05/27 02:45:25;;;;;;;5.30;2.00;;;14.20;99.90;;;;;;5066864;28;20524;-87
2022/05/27 02:48:01;;;;;;;4.77;2.53;;;14.30;99.90;;;;;;5061341;28;20410;-87
2022/05/27 02:50:37;;;;;;;5.00;2.20;;;14.20;99.90;;;;;;5064989;28;20946;-87
2022/05/27 02:53:12;;;;;;;5.20;2.50;;;14.20;99.90;;;;;;5063116;28;20460;-87
2022/05/27 02:55:49;;;;;;;3.90;2.23;;;14.20;99.90;;;;;;5074423;28;20485;-85
2022/05/27 02:58:16;;;;;;;3.97;2.20;;;14.40;99.90;;;;;;5071363;28;20419;-86
2022/05/27 03:00:46;;;;;;;4.17;2.37;;;14.30;99.90;;;;;;5065030;28;20438;-85
2022/05/27 03:03:14;;;;;;;3.70;2.03;;;14.30;99.90;;;;;;5062988;28;20476;-87
2022/05/27 03:05:55;;;;;;;4.53;2.00;;;14.30;99.90;;;;;;5061806;28;20548;-87
2022/05/27 03:08:28;;;;;;;4.83;2.47;;;14.20;99.90;;;;;;5061282;28;20512;-87
2022/05/27 03:11:05;;;;;;;3.83;2.37;;;14.20;99.90;;;;;;5061910;28;20475;-87
2022/05/27 03:13:56;;;;;;;6.50;2.33;;;14.10;99.90;;;;;;5077487;28;20423;-81
2022/05/27 03:16:29;;;;;;;4.80;2.33;;;14.10;99.90;;;;;;5077486;28;20455;-86
2022/05/27 03:19:31;;;;;;;4.70;2.20;;;14.20;99.90;;;;;;5073871;28;20428;-86
2022/05/27 03:22:12;;;;;;;5.03;2.23;;;14.30;99.90;;;;;;5062704;28;20457;-86
2022/05/27 03:24:50;;;;;;;6.07;2.40;;;14.40;99.90;;;;;;5059259;28;20437;-86
2022/05/27 03:27:26;;;;;;;4.70;2.40;;;14.30;99.90;;;;;;5065549;28;20869;-85
2022/05/27 03:29:57;;;;;;;4.40;2.57;;;14.30;99.90;;;;;;5071098;28;20417;-85
2022/05/27 03:32:35;;;;;;;4.50;2.60;;;14.30;99.90;;;;;;5073334;28;20448;-86
2022/05/27 03:35:13;;;;;;;3.63;2.30;;;14.40;99.90;;;;;;5074497;28;20462;-87
2022/05/27 03:37:45;;;;;;;4.70;2.13;;;14.40;99.90;;;;;;5076593;28;20440;-86
2022/05/27 03:40:16;;;;;;;3.90;1.97;;;14.40;99.90;;;;;;5070143;28;20406;-87
2022/05/27 03:42:43;;;;;;;4.60;2.27;;;14.40;99.90;;;;;;5071936;28;20776;-87
2022/05/27 03:45:13;;;;;;;4.13;2.23;;;14.50;99.90;;;;;;5070215;28;20497;-88
2022/05/27 03:47:43;;;;;;;3.40;1.90;;;14.30;99.90;;;;;;5077814;28;20431;-87
2022/05/27 03:50:15;;;;;;;4.80;2.77;;;14.40;99.90;;;;;;5071208;28;20510;-86
2022/05/27 03:52:45;;;;;;;4.33;2.57;;;14.50;99.90;;;;;;5071942;28;20441;-86
2022/05/27 03:55:15;;;;;;;5.07;2.50;;;14.50;99.90;;;;;;5075773;28;20514;-86
2022/05/27 03:57:42;;;;;;;5.20;2.43;;;14.50;99.90;;;;;;5072217;28;20479;-87
2022/05/27 04:00:11;;;;;;;4.50;2.20;;;14.60;99.90;;;;;;5067654;28;20479;-86
2022/05/27 04:02:38;;;;;;;6.17;2.70;;;14.70;99.90;;;;;;5064131;28;20457;-87
2022/05/27 04:05:07;;;;;;;4.70;2.10;;;14.70;99.90;;;;;;5062438;28;20611;-87
2022/05/27 04:07:35;;;;;;;5.83;2.60;;;14.70;99.90;;;;;;5064434;28;20456;-87
2022/05/27 04:10:02;;;;;;;5.00;2.23;;;14.70;99.90;;;;;;5066985;28;20437;-86
2022/05/27 04:12:29;;;;;;;3.60;2.30;;;14.70;99.90;;;;;;5064040;28;20876;-87
2022/05/27 04:14:56;;;;;;;4.00;2.20;;;14.80;99.90;;;;;;5062013;28;20536;-87
2022/05/27 04:17:30;;;;;;;5.47;2.50;;;14.90;99.90;;;;;;5062885;28;20963;-87
2022/05/27 04:20:00;;;;;;;6.07;2.43;;;15.00;99.90;;;;;;5062866;28;20471;-87
2022/05/27 04:22:28;;;;;;;4.57;2.40;;;15.10;99.90;;;;;;5062467;28;20463;-87
2022/05/27 04:24:58;;;;;;;4.30;2.10;;;15.00;99.90;;;;;;5062005;28;20483;-86
2022/05/27 04:27:26;;;;;;;4.50;2.23;;;15.00;99.90;;;;;;5073950;28;20434;-85
2022/05/27 04:29:53;;;;;;;4.57;2.00;;;15.10;99.90;;;;;;5074144;28;20469;-86
2022/05/27 04:32:21;;;;;;;4.23;2.27;;;15.10;99.90;;;;;;5066696;28;20432;-86
2022/05/27 04:34:49;;;;;;;4.03;2.27;;;15.30;99.90;;;;;;5065330;28;20459;-86
2022/05/27 04:37:17;;;;;;;6.40;2.83;;;15.20;99.90;;;;;;5059393;28;20459;-85
2022/05/27 04:39:44;;;;;;;6.37;2.70;;;15.10;99.90;;;;;;5060129;28;20506;-86
2022/05/27 04:42:12;;;;;;;4.37;2.30;;;15.20;99.90;;;;;;5058687;28;20498;-86
2022/05/27 04:44:39;;;;;;;4.70;2.50;;;15.20;99.90;;;;;;5059334;28;20513;-86
2022/05/27 04:47:08;;;;;;;4.00;2.30;;;15.30;99.90;;;;;;5058510;28;20481;-86
2022/05/27 04:49:54;;;;;;;4.70;2.50;;;15.30;99.90;;;;;;5062404;28;20415;-85
2022/05/27 04:52:24;;;;;;;6.80;3.13;;;15.30;99.90;;;;;;5076456;28;20406;-83
2022/05/27 04:54:52;;;;;;;6.80;2.83;;;15.40;99.90;;;;;;5078982;28;20504;-84
2022/05/27 04:57:23;;;;;;;5.70;2.63;;;15.40;99.90;;;;;;5076448;28;20512;-87
2022/05/27 04:59:50;;;;;;;6.10;2.87;;;15.50;99.90;;;;;;5070633;28;20478;-84
2022/05/27 05:02:18;;;;;;;3.93;2.40;;;15.60;99.90;;;;;;5078251;28;20441;-87
2022/05/27 05:04:45;;;;;;;5.70;2.53;;;15.90;99.90;;;;;;5075200;28;20443;-87
2022/05/27 05:07:12;;;;;;;7.60;2.50;;;16.10;99.90;;;;;;5075066;28;20473;-87
2022/05/27 05:09:41;;;;;;;6.30;2.80;;;16.20;99.90;;;;;;5064728;28;20460;-87
2022/05/27 05:12:09;;;;;;;4.10;2.40;;;16.20;99.90;;;;;;5063060;28;20510;-86
2022/05/27 05:14:37;;;;;;;5.47;2.40;;;16.20;99.90;;;;;;5069165;28;20511;-86
2022/05/27 05:17:04;;;;;;;3.63;2.30;;;16.40;99.90;;;;;;5066658;28;20482;-86
2022/05/27 05:19:31;;;;;;;5.60;2.20;;;16.30;99.90;;;;;;5067852;28;20496;-85
2022/05/27 05:21:58;;;;;;;5.40;2.50;;;16.30;99.90;;;;;;5076783;28;20446;-84
2022/05/27 05:24:25;;;;;;;6.60;2.70;;;16.40;99.90;;;;;;5078781;28;20459;-82
2022/05/27 05:26:52;;;;;;;7.07;2.80;;;16.40;99.90;;;;;;5078869;28;20453;-84
2022/05/27 05:29:19;;;;;;;5.10;2.20;;;16.40;99.90;;;;;;5077870;28;20439;-85
2022/05/27 05:31:47;;;;;;;3.43;1.80;;;16.50;99.90;;;;;;5068584;28;20497;-87
2022/05/27 05:34:14;;;;;;;5.30;3.07;;;16.50;99.90;;;;;;5063402;28;20479;-87
2022/05/27 05:36:41;;;;;;;5.10;2.63;;;16.70;99.90;;;;;;5062124;28;20493;-88
2022/05/27 05:39:08;;;;;;;4.00;2.20;;;16.70;99.90;;;;;;5061459;28;20541;-87
2022/05/27 05:41:37;;;;;;;4.93;2.53;;;16.90;99.90;;;;;;5060096;28;20531;-86
2022/05/27 05:44:06;;;;;;;4.17;2.47;;;16.80;99.90;;;;;;5061367;28;20462;-86
2022/05/27 05:46:35;;;;;;;6.07;2.50;;;16.90;99.90;;;;;;5062282;28;20542;-85
2022/05/27 05:49:05;;;;;;;5.83;2.80;;;17.10;99.90;;;;;;5062858;28;20538;-87
2022/05/27 05:51:32;;;;;;;4.13;2.33;;;17.10;99.90;;;;;;5063988;28;20455;-88
2022/05/27 05:53:59;;;;;;;4.83;2.40;;;17.00;99.90;;;;;;5062047;28;20455;-87
2022/05/27 05:56:29;;;;;;;4.33;2.37;;;17.00;99.90;;;;;;5062718;28;20508;-87
2022/05/27 05:58:56;;;;;;;5.00;2.90;;;17.00;99.90;;;;;;5062398;28;20420;-88
2022/05/27 06:01:23;;;;;;;5.57;2.20;;;17.00;99.90;;;;;;5061015;28;20969;-87
2022/05/27 06:03:50;;;;;;;4.83;2.53;;;17.00;99.90;;;;;;5061676;28;20479;-85
2022/05/27 06:06:19;;;;;;;4.80;2.43;;;17.10;99.90;;;;;;5062471;28;20475;-87
2022/05/27 06:08:46;;;;;;;5.07;2.83;;;17.00;99.90;;;;;;5061877;28;20938;-87
2022/05/27 06:11:13;;;;;;;3.83;2.33;;;17.10;99.90;;;;;;5065799;28;20910;-86
2022/05/27 06:13:40;;;;;;;6.93;2.83;;;17.10;99.90;;;;;;5063870;28;20516;-85
2022/05/27 06:16:13;;;;;;;5.53;3.10;;;17.20;99.90;;;;;;5073064;23;20649;-89
2022/05/27 06:18:52;;;;;;;4.73;2.80;;;17.10;99.90;;;;;;5053905;28;20473;-89
2022/05/27 06:21:24;;;;;;;6.80;2.70;;;17.10;99.90;;;;;;5062439;28;20613;-89
2022/05/27 06:23:57;;;;;;;8.17;2.80;;;17.20;99.90;;;;;;5064207;28;20490;-89
2022/05/27 06:26:24;;;;;;;5.57;2.63;;;17.20;99.90;;;;;;5074793;28;20447;-88
2022/05/27 06:34:26;;;;;;;5.90;2.90;;;17.30;99.90;;;;;;5055060;28;20403;-89
2022/05/27 06:37:09;;;;;;;5.70;3.10;;;17.40;99.90;;;;;;5054227;28;20542;-88
2022/05/27 06:39:38;;;;;;;4.27;2.43;;;17.40;99.90;;;;;;5054374;28;20462;-88
2022/05/27 06:42:07;;;;;;;5.43;2.70;;;17.40;99.90;;;;;;5053922;28;20966;-89
2022/05/27 06:44:35;;;;;;;7.23;3.27;;;17.40;99.90;;;;;;5055813;28;20508;-89
2022/05/27 06:47:09;;;;;;;6.33;2.90;;;17.40;99.90;;;;;;5056189;28;20480;-89
2022/05/27 06:49:40;;;;;;;5.63;2.83;;;17.40;99.90;;;;;;5054168;28;20469;-89
2022/05/27 06:52:10;;;;;;;10.20;2.87;;;17.40;99.90;;;;;;5053110;28;20432;-90
2022/05/27 06:54:41;;;;;;;10.93;3.50;;;17.60;99.90;;;;;;5056394;28;20446;-88
2022/05/27 06:57:11;;;;;;;7.93;2.90;;;17.60;99.90;;;;;;5059834;28;20503;-88
2022/05/27 06:59:39;;;;;;;5.97;3.10;;;17.60;99.90;;;;;;5054160;28;20431;-89
2022/05/27 07:02:07;;;;;;;6.17;3.00;;;17.60;99.90;;;;;;5054613;28;20820;-89
2022/05/27 07:04:39;;;;;;;4.10;2.37;;;17.50;99.90;;;;;;5053181;28;20458;-89
2022/05/27 07:07:07;;;;;;;6.00;3.23;;;17.60;99.90;;;;;;5054192;28;20443;-89
2022/05/27 07:09:36;;;;;;;4.97;2.53;;;17.50;99.90;;;;;;5060832;28;20746;-89
2022/05/27 07:12:07;;;;;;;4.53;2.50;;;17.50;99.90;;;;;;5060657;28;20864;-88
2022/05/27 07:14:34;;;;;;;5.50;3.40;;;17.40;99.90;;;;;;5059352;28;20407;-89
2022/05/27 07:17:12;;;;;;;4.70;2.70;;;17.50;99.90;;;;;;5057930;28;20955;-88
2022/05/27 07:19:43;;;;;;;5.80;2.77;;;17.60;99.90;;;;;;5062276;28;20464;-89
2022/05/27 07:25:14;;;;;;;4.97;2.60;;;17.70;99.90;;;;;;5060901;28;20810;-89
2022/05/27 07:27:46;;;;;;;5.20;2.80;;;17.80;99.90;;;;;;5068578;28;20530;-88
2022/05/27 07:30:15;;;;;;;5.30;2.80;;;17.70;99.90;;;;;;5061482;28;20554;-89
2022/05/27 07:32:45;;;;;;;6.83;3.37;;;17.70;99.90;;;;;;5059944;28;20445;-89
2022/05/27 07:35:16;;;;;;;5.40;3.00;;;17.80;99.90;;;;;;5059889;28;20476;-89
2022/05/27 07:41:01;;;;;;;7.30;2.53;;;17.70;99.90;;;;;;5193846;23;20526;-88
2022/05/27 07:43:42;;;;;;;4.30;2.70;;;17.80;99.90;;;;;;5060911;28;20568;-89
2022/05/27 07:46:26;;;;;;;6.67;2.43;;;17.90;99.90;;;;;;5064970;28;20611;-89
2022/05/27 07:48:53;;;;;;;5.33;2.80;;;18.10;99.90;;;;;;5072892;28;20429;-89
2022/05/27 07:51:30;;;;;;;3.50;1.90;;;18.10;99.90;;;;;;5076503;28;20532;-87
2022/05/27 07:56:44;;;;;;;5.90;2.90;;;18.50;99.90;;;;;;5070708;28;20491;-88
2022/05/27 07:59:14;;;;;;;4.50;2.47;;;18.40;99.90;;;;;;5062145;28;20459;-89
2022/05/27 08:01:41;;;;;;;7.33;2.73;;;18.40;99.90;;;;;;5063401;28;20539;-88
2022/05/27 08:04:11;;;;;;;4.70;2.33;;;18.40;99.90;;;;;;5075952;28;20472;-88
2022/05/27 08:06:40;;;;;;;6.37;2.80;;;18.50;99.90;;;;;;5076449;28;20542;-88
2022/05/27 08:09:07;;;;;;;5.50;2.83;;;18.50;99.90;;;;;;5070147;28;20515;-87
2022/05/27 08:11:34;;;;;;;6.33;2.77;;;18.70;99.90;;;;;;5059322;28;20583;-87
2022/05/27 08:14:03;;;;;;;4.50;2.70;;;18.80;99.90;;;;;;5059539;28;20471;-89
2022/05/27 08:16:35;;;;;;;8.60;3.17;;;18.70;99.90;;;;;;5057928;28;20968;-88
2022/05/27 08:19:08;;;;;;;8.13;2.37;;;18.70;99.90;;;;;;5071126;28;20420;-88
2022/05/27 08:21:44;;;;;;;6.30;2.80;;;18.70;99.90;;;;;;5072376;28;20493;-88
2022/05/27 08:24:15;;;;;;;5.40;3.30;;;18.70;99.90;;;;;;5059131;28;20739;-88
2022/05/27 08:26:42;;;;;;;7.50;2.80;;;18.60;99.90;;;;;;5058441;28;20495;-88
2022/05/27 08:29:15;;;;;;;7.00;2.80;;;18.70;99.90;;;;;;5056349;28;20979;-88
2022/05/27 08:31:43;;;;;;;7.87;3.07;;;18.70;99.90;;;;;;5057011;28;20417;-89
2022/05/27 08:39:58;;;;;;;4.37;2.30;;;18.90;99.90;;;;;;5058055;28;20418;-89
2022/05/27 08:42:34;;;;;;;7.70;3.10;;;18.70;99.90;;;;;;5059184;28;20447;-88
2022/05/27 08:45:12;;;;;;;7.60;2.80;;;18.70;99.90;;;;;;5067704;28;20422;-88
2022/05/27 08:47:44;;;;;;;4.53;2.60;;;18.70;99.90;;;;;;5060622;28;20472;-88
2022/05/27 08:50:15;;;;;;;4.60;2.53;;;18.60;99.90;;;;;;5059321;28;20545;-89
2022/05/27 08:52:46;;;;;;;5.67;2.63;;;18.60;99.90;;;;;;5056653;28;20524;-88
2022/05/27 09:01:16;;;;;;;5.77;2.67;;;18.40;99.90;;;;;;5059531;28;20420;-88
2022/05/27 09:03:52;;;;;;;6.50;2.30;;;18.50;99.90;;;;;;5061531;28;20526;-89
2022/05/27 09:06:26;;;;;;;4.30;2.30;;;18.40;99.90;;;;;;5060094;28;20480;-88
2022/05/27 09:08:54;;;;;;;6.20;2.43;;;18.20;99.90;;;;;;5061823;28;20544;-89
2022/05/27 09:11:34;;;;;;;5.00;2.47;;;18.00;99.90;;;;;;5061369;28;20892;-88
2022/05/27 09:14:12;;;;;;;6.70;3.00;;;17.90;99.90;;;;;;5064232;28;20446;-88
2022/05/27 09:16:52;;;;;;;5.67;2.70;;;18.00;99.90;;;;;;5071033;28;20511;-88
2022/05/27 09:19:50;;;;;;;4.87;3.00;;;18.20;99.90;;;;;;5060361;28;20440;-88
2022/05/27 09:22:23;;;;;;;7.70;3.10;;;18.50;99.90;;;;;;5064756;28;20477;-89
2022/05/27 09:25:09;;;;;;;7.23;2.53;;;18.60;99.90;;;;;;5076102;28;20421;-88
2022/05/27 09:27:44;;;;;;;5.07;3.47;;;18.70;99.90;;;;;;5066105;28;20480;-89
2022/05/27 09:30:17;;;;;;;4.93;3.00;;;18.90;99.90;;;;;;5058139;28;20410;-88
2022/05/27 09:32:59;;;;;;;4.93;2.80;;;19.10;99.90;;;;;;5063651;28;20453;-89
2022/05/27 09:35:46;;;;;;;4.20;2.70;;;19.40;99.90;;;;;;5062434;28;20514;-87
2022/05/27 09:38:19;;;;;;;4.03;2.30;;;19.60;99.90;;;;;;5059119;28;20558;-89
2022/05/27 09:41:05;;;;;;;4.20;2.20;;;19.60;99.90;;;;;;5059569;28;20478;-88
2022/05/27 09:43:40;;;;;;;5.07;2.23;;;19.70;99.90;;;;;;5069343;28;20480;-88
2022/05/27 09:46:13;;;;;;;4.23;2.10;;;19.80;99.90;;;;;;5057800;28;20525;-88
2022/05/27 09:48:44;;;;;;;4.07;2.10;;;19.80;99.90;;;;;;5062250;28;20461;-89
2022/05/27 09:51:14;;;;;;;4.53;2.47;;;20.00;99.90;;;;;;5062390;28;20509;-89
2022/05/27 09:53:44;;;;;;;3.93;1.90;;;19.90;99.90;;;;;;5057846;28;20574;-88
2022/05/27 09:56:13;;;;;;;4.17;1.80;;;19.90;99.90;;;;;;5059432;28;20563;-88
2022/05/27 09:58:44;;;;;;;4.27;2.23;;;19.90;99.90;;;;;;5075586;28;20468;-88
2022/05/27 10:01:22;;;;;;;3.70;2.07;;;19.80;99.90;;;;;;5076320;28;20422;-87
2022/05/27 10:04:01;;;;;;;4.47;2.73;;;19.70;99.90;;;;;;5076277;28;20445;-87
2022/05/27 10:06:34;;;;;;;6.47;3.00;;;19.70;99.90;;;;;;5070473;28;20443;-89
2022/05/27 10:09:05;;;;;;;4.60;2.40;;;19.60;99.90;;;;;;5062692;28;20904;-87
2022/05/27 10:11:35;;;;;;;5.03;2.20;;;19.50;99.90;;;;;;5061976;28;20433;-88
2022/05/27 10:14:23;;;;;;;5.30;2.20;;;19.60;99.90;;;;;;5057571;28;20928;-89
2022/05/27 10:17:04;;;;;;;4.63;2.13;;;19.80;99.80;;;;;;5056456;28;20607;-89
2022/05/27 10:19:33;;;;;;;4.53;2.57;;;19.60;99.90;;;;;;5057358;28;20441;-88
2022/05/27 10:22:02;;;;;;;6.23;2.20;;;19.60;99.90;;;;;;5058341;28;20447;-89
2022/05/27 10:24:36;;;;;;;4.13;1.90;;;19.80;98.00;;;;;;5066785;28;20466;-89
2022/05/27 10:27:12;;;;;;;4.50;2.20;;;20.00;97.00;;;;;;5057055;28;20484;-89
2022/05/27 10:29:51;;;;;;;5.43;2.03;;;20.20;96.70;;;;;;5056579;28;20532;-89
2022/05/27 10:32:35;;;;;;;5.00;1.67;;;20.50;97.00;;;;;;5059641;28;20452;-89
2022/05/27 10:35:06;;;;;;;5.00;2.40;;;20.40;97.00;;;;;;5060866;28;20395;-88
2022/05/27 10:37:51;;;;;;;5.13;2.30;;;20.20;97.40;;;;;;5065482;28;20510;-89
2022/05/27 10:40:27;;;;;;;11.20;3.47;;;20.50;97.70;;;;;;5058130;28;20451;-87
2022/05/27 10:43:02;;;;;;;3.73;2.03;;;20.60;97.30;;;;;;5059607;28;20455;-89
2022/05/27 10:45:35;;;;;;;4.40;2.40;;;20.50;95.90;;;;;;5058161;28;20493;-89
2022/05/27 10:48:30;;;;;;;4.27;2.50;;;20.50;95.70;;;;;;5060602;28;20527;-88
2022/05/27 10:51:18;;;;;;;4.53;2.17;;;20.60;96.20;;;;;;5059444;28;20427;-89
2022/05/27 10:54:08;;;;;;;5.60;2.33;;;20.80;95.80;;;;;;5068918;28;20501;-88
2022/05/27 11:02:04;;;;;;;5.03;2.57;;;21.00;94.90;;;;;;5073750;28;20444;-89
2022/05/27 11:02:53;;;;;;;6.00;3.07;;;21.20;94.30;;;;;;5059982;28;20443;-88
2022/05/27 11:05:33;;;;;;;3.63;2.00;;;21.10;94.50;;;;;;5068306;28;20457;-89
2022/05/27 11:08:21;;;;;;;4.70;1.87;;;20.70;94.50;;;;;;5074330;28;20520;-86
2022/05/27 11:10:57;;;;;;;6.23;2.10;;;20.60;94.90;;;;;;5061868;28;20447;-88
2022/05/27 11:17:11;;;;;;;4.13;1.90;;;20.60;95.10;;;;;;5064820;28;20498;-88
2022/05/27 11:23:11;;;;;;;5.00;1.80;;;20.90;94.70;;;;;;5064999;28;20463;-89
2022/05/27 11:26:31;;;;;;;4.87;2.50;;;20.90;94.80;;;;;;5060504;28;20409;-88
2022/05/27 11:29:59;;;;;;;5.00;2.90;;;20.70;94.70;;;;;;5057879;28;20445;-89
2022/05/27 11:32:53;;;;;;;3.70;1.90;;;20.70;94.70;;;;;;5003166;28;20460;-88
2022/05/27 11:35:32;;;;;;;4.57;2.00;;;20.90;94.50;;;;;;5003752;28;20458;-89
2022/05/27 11:38:38;;;;;;;5.57;1.97;;;21.00;94.40;;;;;;5056448;28;20502;-87
2022/05/27 11:41:23;;;;;;;5.17;2.10;;;21.00;94.40;;;;;;5074678;28;20452;-87
2022/05/27 11:44:03;;;;;;;3.87;2.37;;;21.20;94.40;;;;;;5071154;28;20410;-88
2022/05/27 11:47:09;;;;;;;3.83;1.67;;;21.10;94.40;;;;;;5065183;28;20550;-88
2022/05/27 11:50:04;;;;;;;3.80;2.00;;;21.20;94.80;;;;;;5056967;28;20451;-88
2022/05/27 11:52:49;;;;;;;3.90;2.37;;;21.10;94.40;;;;;;5045242;28;20527;-88
2022/05/27 11:55:37;;;;;;;3.40;1.80;;;21.10;94.40;;;;;;5058123;28;20481;-89
2022/05/27 12:02:00;;;;;;;4.63;2.03;;;21.30;94.50;;;;;;4985400;28;20548;-88
2022/05/27 12:07:38;;;;;;;4.40;2.30;;;21.20;94.90;;;;;;5058233;28;20600;-87
2022/05/27 12:10:24;;;;;;;6.87;3.03;;;21.40;94.90;;;;;;5060658;28;20507;-88
2022/05/27 12:13:08;;;;;;;4.70;2.40;;;21.70;94.40;;;;;;5060531;28;20499;-89
2022/05/27 12:15:40;;;;;;;4.00;2.00;;;21.80;94.10;;;;;;5062991;28;20929;-89
2022/05/27 12:23:40;;;;;;;4.80;2.43;;;22.40;93.50;;;;;;5059148;28;20509;-89
2022/05/27 12:29:03;;;;;;;4.07;2.10;;;22.60;93.00;;;;;;5054323;28;20504;-89
2022/05/27 12:31:46;;;;;;;3.37;1.87;;;22.60;93.00;;;;;;5059577;28;20451;-89
2022/05/27 12:34:45;;;;;;;4.10;2.10;;;22.50;92.50;;;;;;5059569;28;20882;-89
2022/05/27 12:37:26;;;;;;;3.30;2.10;;;22.50;93.10;;;;;;5059231;28;20560;-89
2022/05/27 12:40:32;;;;;;;4.50;2.10;;;22.50;93.10;;;;;;5060074;28;20553;-89
2022/05/27 12:43:26;;;;;;;3.97;1.67;;;22.50;93.30;;;;;;5061597;28;20424;-89
2022/05/27 12:49:50;;;;;;;3.40;1.93;;;22.50;93.10;;;;;;5051569;28;20548;-87
2022/05/27 12:53:07;;;;;;;4.90;2.17;;;22.30;93.30;;;;;;4999295;28;20458;-88
2022/05/27 13:06:07;;;;;;;6.03;2.20;;;21.80;94.50;;;;;;5057201;28;20517;-89
2022/05/27 13:12:05;;;;;;;4.90;2.20;;;21.90;94.60;;;;;;5062932;28;20520;-87
2022/05/27 13:15:10;;;;;;;;;;;;;;;;;;;;;
2022/05/27 13:18:12;;;;;;;5.40;2.10;;;21.80;94.70;;;;;;5065261;28;20476;-88
2022/05/27 13:20:57;;;;;;;7.17;2.10;;;21.80;95.00;;;;;;5066631;28;20488;-88
2022/05/27 13:23:55;;;;;;;5.73;2.53;;;21.80;95.00;;;;;;5077095;28;20440;-87
2022/05/27 13:26:42;;;;;;;4.13;2.10;;;21.70;94.90;;;;;;5064654;28;20455;-88
2022/05/27 13:29:41;;;;;;;4.00;2.37;;;21.70;94.80;;;;;;5063050;28;20560;-88
2022/05/27 13:49:30;;;;;;;2.90;1.50;;;21.90;94.40;;;;;;5058961;28;20575;-88
2022/05/27 13:52:06;;;;;;;3.30;1.53;;;21.80;94.30;;;;;;5059189;28;20465;-87
2022/05/27 13:55:15;;;;;;;6.43;2.33;;;21.70;94.70;;;;;;5059833;28;20863;-88
2022/05/27 13:57:50;;;;;;;4.10;2.00;;;21.70;94.80;;;;;;5068444;28;20495;-88
2022/05/27 14:00:26;;;;;;;3.73;1.70;;;21.60;94.90;;;;;;5068500;28;20765;-88
2022/05/27 14:02:53;;;;;;;5.90;2.03;;;21.60;95.30;;;;;;5060426;28;20812;-88
2022/05/27 14:05:39;;;;;;;5.53;2.17;;;21.80;95.60;;;;;;5058715;28;20468;-87
2022/05/27 14:08:12;;;;;;;3.77;1.70;;;21.90;95.40;;;;;;5059591;28;20477;-88
2022/05/27 14:11:06;;;;;;;3.33;1.57;;;22.20;94.80;;;;;;5069317;28;20460;-87
2022/05/27 14:13:40;;;;;;;3.50;1.87;;;22.10;94.70;;;;;;5076814;28;20436;-86
2022/05/27 14:16:22;;;;;;;3.53;1.77;;;21.70;95.00;;;;;;5076887;28;20461;-87
2022/05/27 14:19:10;;;;;;;3.57;1.73;;;21.70;95.50;;;;;;5060742;28;21075;-88
2022/05/27 14:25:29;;;;;;;;;;;;;;;;;;;;;
2022/05/27 14:28:23;;;;;;;3.70;1.87;;;22.30;95.00;;;;;;5058856;28;20540;-89
2022/05/27 14:31:31;;;;;;;4.90;1.90;;;22.50;95.00;;;;;;5059307;28;20828;-89
2022/05/27 14:37:14;;;;;;;3.60;1.83;;;22.60;94.50;;;;;;5058768;28;20531;-88
2022/05/27 14:40:12;;;;;;;5.07;2.33;;;22.50;94.80;;;;;;5060381;28;20491;-90
2022/05/27 14:43:30;;;;;;;;;;;;;;;;;;;;;
2022/05/27 14:46:36;;;;;;;3.40;1.93;;;23.00;94.50;;;;;;5059298;28;20456;-88
2022/05/27 14:53:47;;;;;;;;;;;;;;;;;;;;;
2022/05/27 14:56:53;;;;;;;3.37;1.70;;;22.70;94.90;;;;;;5057560;28;20906;-89
2022/05/27 15:34:23;;;;;;;;;;;;;;;;;;;;;
2022/05/27 15:41:08;;;;;;;3.10;1.50;;;21.20;98.90;;;;;;5043208;28;20523;-90
2022/05/27 15:47:26;;;;;;;3.23;1.40;;;22.00;97.40;;;;;;5050627;28;20472;-89
2022/05/27 16:00:38;;;;;;;;;;;;;;;;;;;;;
2022/05/27 16:33:28;;;;;;;3.17;1.50;;;22.50;92.50;;;;;;4921049;29;20494;-88
2022/05/27 16:42:58;;;;;;;;;;;;;;;;;;;;;
2022/05/27 16:54:52;;;;;;;;;;;;;;;;;;;;;